Time;durP1;ratioP1;P1;durP2;ratioP2;P2;SDS_P1;SDS_P2;PMS_P1;PMS_P2;Temp;Humidity;BMP_temperature;BMP_pressure;BME280_temperature;BME280_humidity;BME280_pressure;Samples;Min_cycle;Max_cycle;Signal;HPM_P1;HPM_P2
2021/09/18 00:02:04;;;;;;;14.20;9.23;;;;;;;18.82;87.26;98197.69;5038474;28;20067;-57
2021/09/18 00:04:30;;;;;;;17.98;8.95;;;;;;;18.64;87.86;98197.53;5050118;28;20036;-57
2021/09/18 00:06:55;;;;;;;14.68;9.10;;;;;;;18.68;87.98;98200.56;5031276;28;20013;-56
2021/09/18 00:09:21;;;;;;;14.75;8.77;;;;;;;18.55;88.55;98196.94;5052440;28;20033;-56
2021/09/18 00:11:46;;;;;;;14.45;9.13;;;;;;;18.41;89.39;98195.34;5050602;28;20039;-57
2021/09/18 00:14:11;;;;;;;16.85;9.93;;;;;;;18.30;88.73;98172.28;5051593;28;20028;-55
2021/09/18 00:16:37;;;;;;;13.85;9.38;;;;;;;18.57;88.11;98200.16;5032917;28;20024;-58
2021/09/18 00:19:03;;;;;;;13.07;8.93;;;;;;;18.57;88.05;98202.81;5042538;28;20494;-57
2021/09/18 00:21:28;;;;;;;15.77;9.55;;;;;;;18.37;87.70;98162.56;5050645;28;20043;-57
2021/09/18 00:23:54;;;;;;;16.30;9.90;;;;;;;18.37;88.11;98175.72;5055131;28;20055;-56
2021/09/18 00:26:20;;;;;;;16.05;9.77;;;;;;;18.57;88.47;98210.69;5059449;28;20027;-56
2021/09/18 00:28:46;;;;;;;15.27;10.20;;;;;;;18.61;88.28;98213.72;5056900;28;20039;-57
2021/09/18 00:31:11;;;;;;;14.18;9.45;;;;;;;18.63;88.39;98206.44;5040773;28;20025;-57
2021/09/18 00:33:36;;;;;;;18.08;9.85;;;;;;;18.68;88.03;98200.56;5034108;28;20781;-57
2021/09/18 00:36:03;;;;;;;14.45;9.70;;;;;;;18.60;88.12;98204.19;5052934;28;20024;-56
2021/09/18 00:38:28;;;;;;;13.85;9.27;;;;;;;18.55;88.85;98218.00;5035015;28;20126;-57
2021/09/18 00:40:53;;;;;;;13.52;8.98;;;;;;;18.56;88.59;98219.63;5054496;28;20028;-56
2021/09/18 00:43:19;;;;;;;16.10;9.70;;;;;;;18.61;89.05;98219.78;5037229;28;20486;-57
2021/09/18 00:45:44;;;;;;;15.90;9.25;;;;;;;18.53;89.22;98222.66;5033545;28;20037;-57
2021/09/18 00:48:09;;;;;;;15.73;9.68;;;;;;;18.62;88.71;98224.06;5042274;28;20482;-57
2021/09/18 00:50:35;;;;;;;13.55;9.10;;;;;;;18.67;88.44;98225.25;5057023;28;20478;-56
2021/09/18 00:53:00;;;;;;;17.65;9.50;;;;;;;18.37;88.83;98184.41;5059663;28;20037;-57
2021/09/18 00:55:27;;;;;;;15.75;10.13;;;;;;;18.56;88.43;98205.63;5033572;28;20025;-56
2021/09/18 00:57:53;;;;;;;13.60;9.25;;;;;;;18.59;88.82;98210.50;4982439;28;1545385;-57
2021/09/18 01:00:18;;;;;;;15.73;9.43;;;;;;;18.67;88.42;98212.09;5043377;28;20041;-57
2021/09/18 01:02:44;;;;;;;14.23;9.02;;;;;;;18.65;88.32;98204.41;5048989;28;20497;-57
2021/09/18 01:05:10;;;;;;;17.50;9.45;;;;;;;18.68;88.33;98203.19;5057435;28;20077;-55
2021/09/18 01:07:36;;;;;;;14.60;9.57;;;;;;;18.49;88.79;98181.16;5041882;28;20063;-56
2021/09/18 01:10:03;;;;;;;17.50;9.02;;;;;;;18.47;88.69;98168.19;5035031;28;20671;-54
2021/09/18 01:12:29;;;;;;;15.65;9.82;;;;;;;18.65;88.37;98201.75;5046255;28;20028;-56
2021/09/18 01:14:54;;;;;;;15.77;8.95;;;;;;;18.68;88.32;98209.25;5047449;28;20581;-56
2021/09/18 01:17:20;;;;;;;16.23;9.07;;;;;;;18.40;88.97;98178.75;5039694;28;20112;-56
2021/09/18 01:19:45;;;;;;;15.43;9.80;;;;;;;18.64;89.04;98200.16;5057788;28;20039;-56
2021/09/18 01:22:11;;;;;;;15.48;9.13;;;;;;;18.50;89.88;98203.84;5052389;28;20036;-54
2021/09/18 01:24:37;;;;;;;15.88;9.43;;;;;;;18.30;89.86;98180.19;5047450;28;20413;-57
2021/09/18 01:27:03;;;;;;;16.25;8.65;;;;;;;18.58;89.75;98203.59;5053790;28;20113;-56
2021/09/18 01:29:28;;;;;;;13.82;9.02;;;;;;;18.49;89.91;98197.78;5040657;28;20071;-57
2021/09/18 01:31:54;;;;;;;13.50;9.07;;;;;;;18.53;89.53;98198.97;5061020;28;20036;-56
2021/09/18 01:34:21;;;;;;;15.10;9.65;;;;;;;18.43;90.08;98193.31;5035853;28;20025;-56
2021/09/18 01:36:47;;;;;;;18.00;9.52;;;;;;;18.32;90.61;98186.03;5036249;28;20040;-57
2021/09/18 01:39:14;;;;;;;16.55;9.35;;;;;;;18.24;90.68;98168.66;5020917;28;20119;-56
2021/09/18 01:41:40;;;;;;;14.63;8.60;;;;;;;18.47;90.44;98201.59;5053913;28;20106;-56
2021/09/18 01:44:06;;;;;;;16.95;8.43;;;;;;;18.56;89.99;98200.38;5038857;28;20515;-56
2021/09/18 01:46:31;;;;;;;11.43;8.30;;;;;;;18.58;89.78;98190.44;5051741;28;20029;-57
2021/09/18 01:48:57;;;;;;;13.48;8.95;;;;;;;18.64;90.32;98202.78;5053199;28;20032;-56
2021/09/18 01:51:23;;;;;;;14.32;9.32;;;;;;;18.56;90.55;98185.41;5038640;28;20391;-56
2021/09/18 01:53:49;;;;;;;15.80;9.38;;;;;;;18.63;90.99;98194.06;5056682;28;20040;-57
2021/09/18 01:56:14;;;;;;;16.00;8.82;;;;;;;18.40;90.88;98151.63;5039506;28;20049;-56
2021/09/18 01:58:39;;;;;;;16.08;8.35;;;;;;;18.49;92.15;98189.03;5035231;28;20036;-56
2021/09/18 02:01:05;;;;;;;15.55;8.82;;;;;;;18.56;91.20;98195.09;5037058;28;20689;-57
2021/09/18 02:03:31;;;;;;;11.02;8.35;;;;;;;18.69;89.98;98197.72;5060908;28;20038;-56
2021/09/18 02:05:57;;;;;;;13.15;8.77;;;;;;;18.69;90.01;98196.91;5056366;28;20402;-59
2021/09/18 02:08:23;;;;;;;13.23;8.73;;;;;;;18.47;90.62;98189.25;5056623;28;20036;-56
2021/09/18 02:10:49;;;;;;;18.60;9.57;;;;;;;18.40;91.58;98189.28;5048474;28;20581;-58
2021/09/18 02:13:14;;;;;;;13.80;8.65;;;;;;;18.42;91.75;98179.34;5058040;28;20033;-56
2021/09/18 02:15:40;;;;;;;13.60;8.80;;;;;;;18.43;91.70;98185.41;5050954;28;20093;-55
2021/09/18 02:18:07;;;;;;;11.52;8.43;;;;;;;18.50;91.67;98198.56;5055372;28;20599;-55
2021/09/18 02:20:33;;;;;;;17.85;8.73;;;;;;;18.53;91.66;98200.81;5036624;28;20021;-56
2021/09/18 02:22:59;;;;;;;12.50;8.63;;;;;;;18.54;91.57;98200.56;5051846;28;20482;-58
2021/09/18 02:25:25;;;;;;;14.15;8.77;;;;;;;18.61;91.14;98205.84;5038081;28;20082;-57
2021/09/18 02:27:51;;;;;;;14.23;8.80;;;;;;;18.68;91.14;98192.66;5057727;28;20087;-58
2021/09/18 02:30:22;;;;;;;15.27;8.93;;;;;;;18.57;91.34;98196.75;5051482;28;20566;-57
2021/09/18 02:32:48;;;;;;;18.40;9.45;;;;;;;18.62;90.34;98194.28;5055420;28;20033;-57
2021/09/18 02:35:16;;;;;;;13.82;9.38;;;;;;;18.50;90.60;98164.34;5053697;28;20021;-58
2021/09/18 02:37:42;;;;;;;13.68;8.98;;;;;;;18.63;90.79;98188.00;5054817;28;20060;-56
2021/09/18 02:40:11;;;;;;;13.73;9.45;;;;;;;18.63;91.15;98188.00;5053352;28;20060;-57
2021/09/18 02:42:42;;;;;;;14.63;9.57;;;;;;;18.68;90.99;98182.94;5056897;28;20037;-57
2021/09/18 02:45:08;;;;;;;15.48;9.30;;;;;;;18.73;90.33;98187.59;5032164;28;20033;-57
2021/09/18 02:47:34;;;;;;;16.25;9.25;;;;;;;18.53;90.49;98154.22;5042662;28;20060;-58
2021/09/18 02:50:00;;;;;;;15.30;9.75;;;;;;;18.72;90.85;98180.69;5041165;28;20024;-58
2021/09/18 02:52:25;;;;;;;17.90;10.05;;;;;;;18.78;90.46;98174.56;5053709;28;20055;-57
2021/09/18 02:54:50;;;;;;;15.43;9.68;;;;;;;18.84;89.98;98173.78;5051405;28;20040;-58
2021/09/18 02:57:16;;;;;;;15.88;9.48;;;;;;;18.59;90.04;98140.22;5054261;28;20037;-57
2021/09/18 02:59:41;;;;;;;17.27;9.93;;;;;;;18.77;90.44;98167.72;5055854;28;20039;-58
2021/09/18 03:02:07;;;;;;;17.50;9.80;;;;;;;18.76;90.29;98161.63;5057995;28;20043;-57
2021/09/18 03:04:32;;;;;;;18.67;10.02;;;;;;;18.80;90.08;98167.28;5056585;28;20036;-57
2021/09/18 03:06:59;;;;;;;14.18;9.68;;;;;;;18.62;90.81;98139.81;5059221;28;20031;-57
2021/09/18 03:09:25;;;;;;;16.80;9.50;;;;;;;18.78;91.19;98158.78;5055754;28;20058;-57
2021/09/18 03:11:50;;;;;;;16.35;9.35;;;;;;;18.81;90.88;98150.50;5033512;28;20144;-57
2021/09/18 03:14:15;;;;;;;13.85;8.65;;;;;;;18.81;91.05;98153.13;5049220;28;20086;-57
2021/09/18 03:16:41;;;;;;;15.68;9.25;;;;;;;18.66;90.71;98121.78;5051789;28;20486;-57
2021/09/18 03:19:06;;;;;;;14.38;9.18;;;;;;;18.75;90.92;98146.84;5055176;28;20025;-57
2021/09/18 03:21:32;;;;;;;15.90;9.57;;;;;;;18.81;91.04;98153.13;5024505;28;20474;-57
2021/09/18 03:23:57;;;;;;;14.30;9.40;;;;;;;18.82;90.57;98160.03;5033716;28;20044;-57
2021/09/18 03:26:22;;;;;;;14.65;9.55;;;;;;;18.85;90.27;98154.31;5020219;28;20029;-57
2021/09/18 03:28:48;;;;;;;13.20;9.20;;;;;;;18.61;90.83;98119.75;5047749;28;20017;-58
2021/09/18 03:31:13;;;;;;;15.20;9.38;;;;;;;18.80;90.93;98144.41;5045053;28;20467;-57
2021/09/18 03:33:39;;;;;;;14.60;9.00;;;;;;;18.88;91.15;98155.75;5055964;28;20121;-57
2021/09/18 03:36:05;;;;;;;17.05;9.43;;;;;;;18.93;91.18;98159.38;5034074;28;20037;-57
2021/09/18 03:38:31;;;;;;;14.10;10.00;;;;;;;18.97;91.39;98154.50;5040329;28;20528;-57
2021/09/18 03:40:56;;;;;;;14.95;9.15;;;;;;;18.93;91.45;98151.47;5052210;28;20048;-57
2021/09/18 03:43:21;;;;;;;16.45;9.88;;;;;;;18.87;92.40;98157.56;5049502;28;20040;-57
2021/09/18 03:45:47;;;;;;;15.40;9.52;;;;;;;18.84;92.95;98160.63;5057925;28;20685;-57
2021/09/18 03:48:12;;;;;;;14.65;9.45;;;;;;;18.89;92.72;98154.72;5059049;28;20052;-57
2021/09/18 03:50:38;;;;;;;16.70;9.73;;;;;;;18.70;92.80;98122.97;5042029;28;20609;-57
2021/09/18 03:53:03;;;;;;;15.02;9.57;;;;;;;18.71;92.68;98132.50;5037926;28;20025;-57
2021/09/18 03:55:29;;;;;;;15.10;9.57;;;;;;;18.94;92.97;98166.25;5060953;28;20556;-57
2021/09/18 03:57:54;;;;;;;14.88;9.02;;;;;;;18.97;93.39;98173.72;5047268;28;20065;-57
2021/09/18 04:00:20;;;;;;;12.43;7.82;;;;;;;18.81;94.13;98153.94;5061696;28;20056;-57
2021/09/18 04:02:46;;;;;;;12.35;8.48;;;;;;;18.90;96.06;98169.50;5050762;28;20029;-57
2021/09/18 04:05:11;;;;;;;14.45;8.90;;;;;;;18.86;96.64;98171.75;5059079;28;20501;-57
2021/09/18 04:07:37;;;;;;;17.05;8.63;;;;;;;18.67;97.82;98167.34;5041782;28;20106;-57
2021/09/18 04:10:02;;;;;;;13.25;8.40;;;;;;;18.53;99.51;98167.38;5055962;28;20032;-57
2021/09/18 04:12:28;;;;;;;16.90;9.07;;;;;;;18.51;100.00;98158.06;5044303;28;20611;-57
2021/09/18 04:14:53;;;;;;;14.32;9.38;;;;;;;18.50;100.00;98145.91;5054933;28;20036;-56
2021/09/18 04:17:19;;;;;;;17.65;9.32;;;;;;;18.58;100.00;98166.75;5061209;28;20016;-57
2021/09/18 04:19:44;;;;;;;14.60;8.88;;;;;;;18.61;100.00;98169.78;5034938;28;20042;-57
2021/09/18 04:22:09;;;;;;;13.55;8.43;;;;;;;18.53;100.00;98167.38;5043758;28;20056;-58
2021/09/18 04:24:36;;;;;;;14.13;9.15;;;;;;;18.63;100.00;98167.75;5061390;28;20684;-57
2021/09/18 04:27:02;;;;;;;12.52;8.57;;;;;;;18.37;99.64;98136.25;5042759;28;20056;-57
2021/09/18 04:29:27;;;;;;;16.60;10.38;;;;;;;18.56;100.00;98177.50;5045383;28;20129;-58
2021/09/18 04:31:53;;;;;;;15.20;9.25;;;;;;;18.38;100.00;98143.09;5061367;28;20032;-57
2021/09/18 04:34:18;;;;;;;16.15;9.82;;;;;;;18.29;100.00;98158.31;5059694;28;20203;-58
2021/09/18 04:36:44;;;;;;;14.95;10.60;;;;;;;18.53;100.00;98177.91;5040889;28;20118;-58
2021/09/18 04:39:09;;;;;;;16.17;9.60;;;;;;;18.52;100.00;98186.00;5060931;28;20051;-59
2021/09/18 04:41:34;;;;;;;15.80;9.88;;;;;;;18.34;100.00;98155.06;5037545;28;20471;-60
2021/09/18 04:44:00;;;;;;;15.80;10.18;;;;;;;18.53;100.00;98191.06;5023076;28;20028;-59
2021/09/18 04:46:25;;;;;;;14.85;9.63;;;;;;;18.55;100.00;98178.50;5057351;28;20077;-58
2021/09/18 04:48:51;;;;;;;16.35;10.73;;;;;;;18.44;100.00;98163.34;5040931;28;20051;-59
2021/09/18 04:51:17;;;;;;;16.13;11.18;;;;;;;18.37;100.00;98147.56;5058677;28;20395;-59
2021/09/18 04:53:43;;;;;;;16.05;11.40;;;;;;;18.51;100.00;98179.09;5056982;28;20032;-58
2021/09/18 04:56:08;;;;;;;19.60;11.02;;;;;;;18.49;100.00;98187.25;5058351;28;20032;-60
2021/09/18 04:58:33;;;;;;;18.17;10.85;;;;;;;18.60;100.00;98181.34;5023303;28;20037;-58
2021/09/18 05:00:59;;;;;;;19.48;11.00;;;;;;;18.66;100.00;98181.53;5051303;28;20789;-59
2021/09/18 05:03:24;;;;;;;19.27;10.85;;;;;;;18.72;100.00;98185.97;5051498;28;20120;-58
2021/09/18 05:05:50;;;;;;;18.33;11.50;;;;;;;18.76;100.00;98189.78;5040678;28;20118;-59
2021/09/18 05:08:15;;;;;;;21.45;11.95;;;;;;;18.66;100.00;98163.91;5058520;28;20400;-59
2021/09/18 05:10:41;;;;;;;17.75;10.80;;;;;;;18.85;100.00;98196.47;5040697;28;20188;-59
2021/09/18 05:13:06;;;;;;;15.90;10.52;;;;;;;18.61;100.00;98164.50;5026499;28;20044;-58
2021/09/18 05:15:32;;;;;;;17.33;11.30;;;;;;;18.75;100.00;98188.19;5053044;28;20166;-60
2021/09/18 05:17:57;;;;;;;16.48;12.00;;;;;;;18.34;100.00;98139.28;5052756;28;20127;-59
2021/09/18 05:20:23;;;;;;;18.05;10.63;;;;;;;18.76;100.00;98202.94;5055827;28;20109;-58
2021/09/18 05:22:48;;;;;;;20.42;11.82;;;;;;;18.77;100.00;98194.84;5051048;28;20072;-59
2021/09/18 05:25:14;;;;;;;19.65;11.60;;;;;;;18.80;100.00;98204.16;5062214;28;20029;-59
2021/09/18 05:27:39;;;;;;;15.63;11.70;;;;;;;18.80;100.00;98196.25;5043193;28;20101;-58
2021/09/18 05:30:06;;;;;;;17.38;11.15;;;;;;;18.64;100.00;98166.72;5031280;28;20028;-58
2021/09/18 05:32:32;;;;;;;16.98;11.38;;;;;;;18.63;100.00;98180.09;5060153;28;20033;-58
2021/09/18 05:34:57;;;;;;;16.35;11.50;;;;;;;18.79;100.00;98202.53;5014755;28;20025;-61
2021/09/18 05:37:23;;;;;;;17.45;10.98;;;;;;;18.86;100.00;98221.81;5039947;28;20360;-58
2021/09/18 05:39:48;;;;;;;17.92;11.90;;;;;;;18.89;100.00;98223.19;5041985;28;20059;-58
2021/09/18 05:42:14;;;;;;;18.45;12.48;;;;;;;18.85;100.00;98216.75;5056268;28;20111;-59
2021/09/18 05:44:40;;;;;;;18.33;12.50;;;;;;;18.88;100.00;98222.41;5047654;28;20475;-60
2021/09/18 05:47:05;;;;;;;19.33;13.30;;;;;;;18.93;100.00;98219.97;5036482;28;20039;-58
2021/09/18 05:49:31;;;;;;;19.52;12.65;;;;;;;18.89;100.00;98218.75;5040730;28;20040;-58
2021/09/18 05:51:57;;;;;;;18.48;12.25;;;;;;;18.62;100.00;98196.94;5034449;28;20044;-58
2021/09/18 05:54:22;;;;;;;22.20;13.90;;;;;;;18.70;100.00;98223.03;5035811;28;20032;-59
2021/09/18 05:56:48;;;;;;;20.83;14.52;;;;;;;18.50;100.00;98188.03;5018992;28;20032;-59
2021/09/18 05:59:13;;;;;;;19.52;14.27;;;;;;;18.62;100.00;98194.28;5039981;28;20035;-59
2021/09/18 06:01:38;;;;;;;22.02;15.70;;;;;;;18.83;100.00;98232.75;5040957;28;20039;-59
2021/09/18 06:04:04;;;;;;;24.42;16.42;;;;;;;18.77;100.00;98212.47;5051464;28;20032;-59
2021/09/18 06:06:29;;;;;;;22.33;15.43;;;;;;;18.91;100.00;98231.69;5055974;28;20044;-59
2021/09/18 06:08:55;;;;;;;22.40;15.45;;;;;;;18.83;100.00;98228.28;5054474;28;20517;-59
2021/09/18 06:11:20;;;;;;;21.70;15.10;;;;;;;18.86;100.00;98231.53;5058808;28;20098;-60
2021/09/18 06:13:46;;;;;;;20.38;15.00;;;;;;;18.83;100.00;98236.19;5037666;28;20032;-61
2021/09/18 06:16:11;;;;;;;19.65;14.45;;;;;;;18.86;100.00;98228.91;5037627;28;20106;-59
2021/09/18 06:18:37;;;;;;;19.92;14.60;;;;;;;18.71;100.00;98205.41;5040827;28;20029;-59
2021/09/18 06:21:04;;;;;;;23.05;15.38;;;;;;;18.58;100.00;98201.81;5037321;28;20032;-60
2021/09/18 06:23:30;;;;;;;19.80;14.95;;;;;;;18.56;100.00;98205.63;5056213;28;20111;-58
2021/09/18 06:25:55;;;;;;;19.80;14.38;;;;;;;18.60;100.00;98202.41;5035920;28;20052;-58
2021/09/18 06:28:21;;;;;;;21.85;15.45;;;;;;;18.62;100.00;98202.19;5039539;28;20060;-59
2021/09/18 06:30:47;;;;;;;21.00;15.45;;;;;;;18.85;100.00;98224.63;5054906;28;20036;-58
2021/09/18 06:33:12;;;;;;;22.75;15.30;;;;;;;18.82;100.00;98218.78;5053198;28;20032;-59
2021/09/18 06:35:37;;;;;;;22.10;15.90;;;;;;;18.92;100.00;98234.13;5058521;28;20032;-58
2021/09/18 06:38:03;;;;;;;22.33;15.70;;;;;;;18.87;100.00;98231.31;5038359;28;20375;-59
2021/09/18 06:40:29;;;;;;;27.40;17.30;;;;;;;18.80;100.00;98228.69;5039007;28;20141;-59
2021/09/18 06:42:54;;;;;;;26.38;17.45;;;;;;;18.84;100.00;98239.66;5041379;28;20029;-58
2021/09/18 06:45:20;;;;;;;23.50;16.88;;;;;;;18.70;100.00;98235.38;5057999;28;20032;-58
2021/09/18 06:47:45;;;;;;;25.67;17.05;;;;;;;18.63;100.00;98240.66;5039704;28;20087;-58
2021/09/18 06:50:11;;;;;;;25.92;17.15;;;;;;;18.70;100.00;98245.91;5037080;28;20033;-58
2021/09/18 06:52:37;;;;;;;24.98;18.38;;;;;;;18.69;100.00;98244.28;5057587;28;20621;-58
2021/09/18 06:55:03;;;;;;;26.25;18.40;;;;;;;18.64;100.00;98240.47;5053098;28;20047;-57
2021/09/18 06:57:28;;;;;;;24.95;18.27;;;;;;;18.69;100.00;98242.50;5037140;28;20549;-58
2021/09/18 06:59:54;;;;;;;25.35;18.23;;;;;;;18.42;100.00;98208.31;5041404;28;20098;-58
2021/09/18 07:02:19;;;;;;;27.20;17.73;;;;;;;18.67;100.00;98233.97;5059776;28;20093;-58
2021/09/18 07:04:44;;;;;;;23.38;16.58;;;;;;;18.70;100.00;98248.56;5054129;28;20394;-57
2021/09/18 07:07:10;;;;;;;24.17;16.55;;;;;;;18.74;100.00;98242.66;5052491;28;20090;-59
2021/09/18 07:09:35;;;;;;;26.10;16.65;;;;;;;18.55;99.58;98209.31;5047924;28;20044;-58
2021/09/18 07:12:01;;;;;;;24.48;16.10;;;;;;;18.73;100.00;98250.78;5050837;28;20064;-58
2021/09/18 07:14:26;;;;;;;22.55;14.93;;;;;;;18.70;100.00;98248.56;5045321;28;20032;-58
2021/09/18 07:16:52;;;;;;;22.80;15.98;;;;;;;18.71;100.00;98253.63;5057471;28;20032;-58
2021/09/18 07:19:18;;;;;;;19.25;13.15;;;;;;;18.64;100.00;98231.75;5058209;28;20040;-57
2021/09/18 07:21:43;;;;;;;18.60;11.98;;;;;;;18.48;99.65;98214.56;5054160;28;20033;-57
2021/09/18 07:24:09;;;;;;;18.08;13.00;;;;;;;18.42;99.68;98221.47;5059291;28;20153;-57
2021/09/18 07:26:35;;;;;;;18.80;12.65;;;;;;;18.53;99.42;98227.13;5058370;28;20028;-57
2021/09/18 07:29:01;;;;;;;17.60;12.38;;;;;;;18.73;99.30;98253.41;5026658;28;20037;-57
2021/09/18 07:31:27;;;;;;;16.58;12.50;;;;;;;18.77;98.52;98244.09;5063958;28;20035;-58
2021/09/18 07:33:52;;;;;;;19.30;12.73;;;;;;;18.77;98.08;98250.16;5036696;28;20056;-59
2021/09/18 07:36:18;;;;;;;18.05;12.80;;;;;;;18.78;97.76;98248.31;5057035;28;20054;-58
2021/09/18 07:38:44;;;;;;;18.85;12.50;;;;;;;18.66;97.28;98260.53;5037368;28;20043;-57
2021/09/18 07:41:09;;;;;;;19.90;12.85;;;;;;;18.70;96.49;98265.16;5057521;28;20673;-58
2021/09/18 07:43:35;;;;;;;20.90;13.43;;;;;;;18.62;96.53;98242.50;5055964;28;20032;-58
2021/09/18 07:46:02;;;;;;;19.58;13.77;;;;;;;18.57;96.45;98234.41;5022680;28;20041;-57
2021/09/18 07:48:28;;;;;;;21.48;13.98;;;;;;;18.79;96.59;98263.91;5056394;28;20032;-57
2021/09/18 07:50:55;;;;;;;20.45;14.05;;;;;;;18.84;96.32;98279.16;5061382;28;20035;-57
2021/09/18 07:53:20;;;;;;;19.13;14.88;;;;;;;18.72;96.78;98257.06;5056631;28;20115;-58
2021/09/18 07:55:45;;;;;;;20.15;14.68;;;;;;;18.78;96.69;98261.50;5053472;28;20082;-57
2021/09/18 07:58:16;;;;;;;24.35;15.27;;;;;;;18.81;97.32;98269.81;5043986;28;20336;-57
2021/09/18 08:00:43;;;;;;;20.58;14.50;;;;;;;18.82;97.73;98270.66;5059104;28;20032;-57
2021/09/18 08:03:09;;;;;;;19.73;13.85;;;;;;;18.73;97.55;98269.22;5039615;28;20021;-57
2021/09/18 08:05:35;;;;;;;21.88;15.13;;;;;;;18.66;97.48;98258.69;5036708;28;20048;-57
2021/09/18 08:08:01;;;;;;;19.80;15.38;;;;;;;18.69;95.98;98273.25;5015728;28;20029;-57
2021/09/18 08:10:27;;;;;;;22.50;15.40;;;;;;;18.49;96.79;98262.75;4970315;28;20639;-58
2021/09/18 08:12:53;;;;;;;22.05;15.23;;;;;;;18.76;95.61;98287.22;4954114;28;20049;-58
2021/09/18 08:15:19;;;;;;;21.92;15.68;;;;;;;18.67;96.11;98288.47;4990444;28;20058;-57
2021/09/18 08:17:46;;;;;;;22.58;15.90;;;;;;;18.65;96.96;98293.91;5015891;28;20143;-57
2021/09/18 08:20:14;;;;;;;23.17;16.17;;;;;;;18.70;97.53;98296.75;4987813;28;20041;-58
2021/09/18 08:22:40;;;;;;;23.85;16.13;;;;;;;18.73;97.56;98300.81;5019906;28;20025;-58
2021/09/18 08:25:07;;;;;;;23.30;16.40;;;;;;;18.34;97.42;98229.56;5015696;28;20119;-58
2021/09/18 08:27:33;;;;;;;23.08;17.05;;;;;;;18.46;98.38;98258.72;5032150;28;20330;-58
2021/09/18 08:29:58;;;;;;;25.35;17.63;;;;;;;18.63;97.60;98282.78;4997193;28;20448;-58
2021/09/18 08:32:24;;;;;;;24.30;16.63;;;;;;;18.67;98.49;98294.53;4989097;28;20029;-58
2021/09/18 08:34:49;;;;;;;23.05;16.33;;;;;;;18.52;99.39;98267.63;5029187;28;20033;-57
2021/09/18 08:37:15;;;;;;;25.02;16.95;;;;;;;18.79;99.04;98290.25;5012246;28;20037;-59
2021/09/18 08:39:40;;;;;;;21.65;16.23;;;;;;;18.82;98.53;98294.34;5021088;28;20047;-57
2021/09/18 08:42:07;;;;;;;22.15;16.30;;;;;;;18.70;97.30;98288.06;5019402;28;20041;-58
2021/09/18 08:44:34;;;;;;;22.35;15.75;;;;;;;18.28;97.96;98216.41;4991622;28;20041;-57
2021/09/18 08:47:00;;;;;;;21.02;16.83;;;;;;;18.81;98.36;98295.34;5017579;28;20100;-58
2021/09/18 08:49:27;;;;;;;20.83;16.40;;;;;;;18.71;96.48;98301.03;4984554;28;20033;-58
2021/09/18 08:51:52;;;;;;;20.92;15.15;;;;;;;18.58;96.63;98285.22;5018336;28;20075;-58
2021/09/18 08:54:18;;;;;;;22.40;16.15;;;;;;;18.58;96.31;98283.41;5019132;28;20025;-58
2021/09/18 08:56:43;;;;;;;21.17;16.00;;;;;;;18.53;97.28;98251.63;5033210;28;20033;-57
2021/09/18 08:59:09;;;;;;;24.23;16.67;;;;;;;18.71;97.87;98289.66;5015453;28;20030;-58
2021/09/18 09:01:34;;;;;;;22.20;15.98;;;;;;;18.78;97.64;98298.38;5022946;28;20037;-57
2021/09/18 09:04:02;;;;;;;21.23;15.38;;;;;;;18.81;97.13;98290.88;4997993;28;20564;-58
2021/09/18 09:06:41;;;;;;;21.58;16.40;;;;;;;18.81;96.94;98285.63;5013392;28;20472;-58
2021/09/18 09:09:07;;;;;;;24.83;17.48;;;;;;;18.90;97.72;98290.69;5018951;28;20025;-58
2021/09/18 09:11:32;;;;;;;21.35;16.08;;;;;;;18.92;96.56;98293.91;5018158;28;20797;-58
2021/09/18 09:14:04;;;;;;;22.77;16.63;;;;;;;19.00;95.70;98289.25;5012548;28;20873;-57
2021/09/18 09:16:32;;;;;;;20.42;16.08;;;;;;;19.10;96.52;98293.28;5007260;28;20029;-56
2021/09/18 09:18:58;;;;;;;23.50;16.30;;;;;;;19.16;96.73;98284.53;4936915;28;20980;-58
2021/09/18 09:21:28;;;;;;;21.52;17.20;;;;;;;19.30;96.29;98291.38;4987448;28;20408;-57
2021/09/18 09:24:11;;;;;;;22.33;16.63;;;;;;;19.37;94.45;98286.88;5018586;28;20025;-57
2021/09/18 09:26:39;;;;;;;19.05;15.18;;;;;;;19.37;94.33;98262.34;5006869;28;20034;-57
2021/09/18 09:29:05;;;;;;;23.90;17.85;;;;;;;19.49;95.17;98281.75;5011176;28;20049;-57
2021/09/18 09:31:34;;;;;;;22.90;17.25;;;;;;;19.53;94.51;98272.41;5012964;28;20536;-57
2021/09/18 09:34:15;;;;;;;20.10;16.45;;;;;;;19.70;95.51;98275.38;5019093;28;20025;-58
2021/09/18 09:36:45;;;;;;;18.63;15.02;;;;;;;19.80;94.07;98276.75;5015870;28;20039;-57
2021/09/18 09:39:14;;;;;;;20.05;14.98;;;;;;;19.58;93.86;98229.59;5017438;28;20596;-57
2021/09/18 09:41:43;;;;;;;17.00;13.65;;;;;;;19.91;91.74;98276.06;5015078;28;20025;-57
2021/09/18 09:44:18;;;;;;;14.73;11.53;;;;;;;19.93;89.84;98259.03;5017106;28;20057;-57
2021/09/18 09:46:59;;;;;;;15.55;10.52;;;;;;;19.87;86.64;98246.66;5016067;28;20133;-58
2021/09/18 09:49:40;;;;;;;13.75;10.30;;;;;;;19.94;86.35;98260.63;5012906;28;20036;-57
2021/09/18 09:52:23;;;;;;;13.68;10.40;;;;;;;20.03;87.74;98271.75;4990774;28;20045;-57
2021/09/18 09:54:49;;;;;;;13.80;10.40;;;;;;;20.10;88.42;98275.13;5015580;28;20689;-57
2021/09/18 09:57:15;;;;;;;13.80;10.48;;;;;;;19.94;89.26;98255.34;5017335;28;20032;-57
2021/09/18 09:59:41;;;;;;;15.93;11.40;;;;;;;20.18;89.69;98281.97;5016062;28;20041;-57
2021/09/18 10:02:12;;;;;;;16.88;11.80;;;;;;;20.01;88.88;98279.06;5027309;28;20032;-57
2021/09/18 10:04:38;;;;;;;16.52;11.88;;;;;;;19.55;87.48;98251.91;5028285;28;20129;-57
2021/09/18 10:07:04;;;;;;;14.93;10.98;;;;;;;19.70;89.09;98277.19;5016678;28;20151;-56
2021/09/18 10:09:30;;;;;;;14.43;12.13;;;;;;;19.53;89.94;98282.97;4997473;28;20026;-57
2021/09/18 10:11:56;;;;;;;13.02;10.20;;;;;;;19.37;88.43;98271.06;4995905;28;20026;-56
2021/09/18 10:14:25;;;;;;;14.25;10.40;;;;;;;19.46;89.26;98276.09;5013945;28;20029;-56
2021/09/18 10:16:53;;;;;;;14.05;11.50;;;;;;;19.36;89.35;98266.00;5015371;28;20044;-56
2021/09/18 10:19:29;;;;;;;13.13;10.25;;;;;;;19.43;89.81;98252.78;5029621;28;20034;-56
2021/09/18 10:24:38;;;;;;;15.77;11.20;;;;;;;19.84;87.01;98289.31;5013751;28;20091;-57
2021/09/18 10:27:24;;;;;;;14.15;11.10;;;;;;;19.97;87.69;98283.97;5017103;28;20380;-56
2021/09/18 10:29:50;;;;;;;14.05;10.05;;;;;;;20.19;87.35;98285.41;5011483;28;20555;-57
2021/09/18 10:32:17;;;;;;;13.48;10.88;;;;;;;20.09;85.91;98280.63;5031530;28;20037;-57
2021/09/18 10:34:42;;;;;;;14.98;11.93;;;;;;;20.07;87.04;98277.41;5015606;28;20038;-56
2021/09/18 10:37:37;;;;;;;15.70;11.55;;;;;;;20.05;86.24;98279.44;5013718;28;20721;-58
2021/09/18 10:40:07;;;;;;;14.65;11.63;;;;;;;20.07;85.28;98277.41;5028241;28;20053;-56
2021/09/18 10:42:34;;;;;;;;;;;;;;;20.16;87.13;98273.47;5015523;28;20865;-57
2021/09/18 10:45:00;;;;;;;15.23;11.68;;;;;;;20.20;86.74;98273.84;5020219;28;20287;-57
2021/09/18 10:47:48;;;;;;;16.40;11.40;;;;;;;20.26;86.83;98265.06;5015642;28;20034;-56
2021/09/18 10:50:24;;;;;;;15.85;12.15;;;;;;;20.32;86.04;98267.66;5016478;28;20404;-57
2021/09/18 10:53:15;;;;;;;15.45;12.73;;;;;;;20.49;87.79;98265.25;5017072;28;20025;-57
2021/09/18 10:55:51;;;;;;;14.77;12.02;;;;;;;20.45;85.74;98242.16;5016304;28;20196;-57
2021/09/18 10:58:17;;;;;;;16.42;12.38;;;;;;;20.73;83.99;98252.28;5025595;28;20433;-57
2021/09/18 11:01:04;;;;;;;14.73;11.43;;;;;;;20.72;85.07;98218.97;5016026;28;20025;-56
2021/09/18 11:03:43;;;;;;;15.88;10.70;;;;;;;21.08;82.95;98251.69;5020857;28;20048;-56
2021/09/18 11:06:09;;;;;;;;;;;;;;;21.19;83.10;98255.44;5015530;28;20116;-57
2021/09/18 11:08:37;;;;;;;12.55;9.80;;;;;;;21.13;82.56;98235.97;5024326;28;20012;-57
2021/09/18 11:11:05;;;;;;;11.82;9.65;;;;;;;21.37;81.80;98247.47;5007968;28;20543;-57
2021/09/18 11:13:33;;;;;;;12.00;8.95;;;;;;;21.54;82.11;98252.16;5020861;28;20021;-57
2021/09/18 11:16:00;;;;;;;12.23;8.45;;;;;;;21.65;78.07;98249.56;5015919;28;20056;-56
2021/09/18 11:18:36;;;;;;;10.85;8.55;;;;;;;21.49;79.12;98213.97;5021576;28;20113;-56
2021/09/18 11:21:10;;;;;;;12.15;8.68;;;;;;;21.81;78.17;98250.78;5020396;28;20053;-57